sensor_id;sensor_type;location;lat;lon;timestamp;P1;durP1;ratioP1;P2;durP2;ratioP2
21591;SDS011;10958;50.892;3.992;2024-02-28T00:01:24;15.10;;;9.35;;
21591;SDS011;10958;50.892;3.992;2024-02-28T00:03:50;11.32;;;8.27;;
21591;SDS011;10958;50.892;3.992;2024-02-28T00:06:22;17.15;;;9.48;;
21591;SDS011;10958;50.892;3.992;2024-02-28T00:08:47;12.30;;;8.98;;
21591;SDS011;10958;50.892;3.992;2024-02-28T00:11:15;14.25;;;9.32;;
21591;SDS011;10958;50.892;3.992;2024-02-28T00:13:41;13.68;;;9.05;;
21591;SDS011;10958;50.892;3.992;2024-02-28T00:16:07;12.57;;;9.02;;
21591;SDS011;10958;50.892;3.992;2024-02-28T00:18:33;15.10;;;10.45;;
21591;SDS011;10958;50.892;3.992;2024-02-28T00:21:01;18.95;;;11.27;;
21591;SDS011;10958;50.892;3.992;2024-02-28T00:23:27;18.17;;;10.43;;
21591;SDS011;10958;50.892;3.992;2024-02-28T00:25:55;16.60;;;10.68;;
21591;SDS011;10958;50.892;3.992;2024-02-28T00:28:21;18.00;;;11.02;;
21591;SDS011;10958;50.892;3.992;2024-02-28T00:30:46;18.17;;;11.27;;
21591;SDS011;10958;50.892;3.992;2024-02-28T00:33:12;16.38;;;11.07;;
21591;SDS011;10958;50.892;3.992;2024-02-28T00:35:39;16.48;;;11.27;;
21591;SDS011;10958;50.892;3.992;2024-02-28T00:38:05;17.85;;;10.70;;
21591;SDS011;10958;50.892;3.992;2024-02-28T00:40:31;14.85;;;10.98;;
21591;SDS011;10958;50.892;3.992;2024-02-28T00:42:57;15.50;;;9.38;;
21591;SDS011;10958;50.892;3.992;2024-02-28T00:45:23;19.08;;;10.77;;
21591;SDS011;10958;50.892;3.992;2024-02-28T00:47:48;17.73;;;11.23;;
21591;SDS011;10958;50.892;3.992;2024-02-28T00:50:14;21.25;;;11.57;;
21591;SDS011;10958;50.892;3.992;2024-02-28T00:52:40;18.73;;;11.52;;
21591;SDS011;10958;50.892;3.992;2024-02-28T00:55:06;17.70;;;11.63;;
21591;SDS011;10958;50.892;3.992;2024-02-28T00:57:32;15.02;;;10.45;;
21591;SDS011;10958;50.892;3.992;2024-02-28T00:59:58;22.75;;;11.50;;
21591;SDS011;10958;50.892;3.992;2024-02-28T01:02:24;14.65;;;9.77;;
21591;SDS011;10958;50.892;3.992;2024-02-28T01:04:50;15.63;;;9.50;;
21591;SDS011;10958;50.892;3.992;2024-02-28T01:07:16;19.45;;;9.55;;
21591;SDS011;10958;50.892;3.992;2024-02-28T01:09:42;13.32;;;9.32;;
21591;SDS011;10958;50.892;3.992;2024-02-28T01:12:07;15.70;;;9.75;;
21591;SDS011;10958;50.892;3.992;2024-02-28T01:14:33;15.27;;;9.40;;
21591;SDS011;10958;50.892;3.992;2024-02-28T01:16:59;12.85;;;8.40;;
21591;SDS011;10958;50.892;3.992;2024-02-28T01:19:25;14.00;;;8.18;;
21591;SDS011;10958;50.892;3.992;2024-02-28T01:21:53;13.38;;;8.70;;
21591;SDS011;10958;50.892;3.992;2024-02-28T01:24:18;13.38;;;9.07;;
21591;SDS011;10958;50.892;3.992;2024-02-28T01:26:44;12.35;;;8.88;;
21591;SDS011;10958;50.892;3.992;2024-02-28T01:29:10;16.73;;;8.73;;
21591;SDS011;10958;50.892;3.992;2024-02-28T01:31:36;16.33;;;8.90;;
21591;SDS011;10958;50.892;3.992;2024-02-28T01:34:02;15.05;;;9.05;;
21591;SDS011;10958;50.892;3.992;2024-02-28T01:36:28;16.60;;;9.73;;
21591;SDS011;10958;50.892;3.992;2024-02-28T01:38:54;12.48;;;8.93;;
21591;SDS011;10958;50.892;3.992;2024-02-28T01:41:20;11.40;;;7.95;;
21591;SDS011;10958;50.892;3.992;2024-02-28T01:43:45;14.52;;;8.88;;
21591;SDS011;10958;50.892;3.992;2024-02-28T01:46:20;15.70;;;8.10;;
21591;SDS011;10958;50.892;3.992;2024-02-28T01:48:49;14.15;;;9.18;;
21591;SDS011;10958;50.892;3.992;2024-02-28T01:51:15;16.65;;;9.65;;
21591;SDS011;10958;50.892;3.992;2024-02-28T01:53:42;17.67;;;9.90;;
21591;SDS011;10958;50.892;3.992;2024-02-28T01:56:11;16.27;;;9.15;;
21591;SDS011;10958;50.892;3.992;2024-02-28T02:01:05;17.20;;;9.38;;
21591;SDS011;10958;50.892;3.992;2024-02-28T02:03:32;18.48;;;9.57;;
21591;SDS011;10958;50.892;3.992;2024-02-28T02:06:00;15.35;;;10.02;;
21591;SDS011;10958;50.892;3.992;2024-02-28T02:08:29;20.05;;;10.40;;
21591;SDS011;10958;50.892;3.992;2024-02-28T02:10:55;20.88;;;9.95;;
21591;SDS011;10958;50.892;3.992;2024-02-28T02:13:24;13.95;;;10.18;;
21591;SDS011;10958;50.892;3.992;2024-02-28T02:15:50;14.60;;;9.77;;
21591;SDS011;10958;50.892;3.992;2024-02-28T02:18:15;17.02;;;10.02;;
21591;SDS011;10958;50.892;3.992;2024-02-28T02:20:46;17.08;;;11.00;;
21591;SDS011;10958;50.892;3.992;2024-02-28T02:23:14;15.75;;;9.93;;
21591;SDS011;10958;50.892;3.992;2024-02-28T02:25:43;16.80;;;10.38;;
21591;SDS011;10958;50.892;3.992;2024-02-28T02:28:10;18.80;;;10.75;;
21591;SDS011;10958;50.892;3.992;2024-02-28T02:30:35;17.55;;;10.18;;
21591;SDS011;10958;50.892;3.992;2024-02-28T02:33:02;14.85;;;10.02;;
21591;SDS011;10958;50.892;3.992;2024-02-28T02:35:28;17.00;;;10.20;;
21591;SDS011;10958;50.892;3.992;2024-02-28T02:37:54;21.77;;;11.15;;
21591;SDS011;10958;50.892;3.992;2024-02-28T02:40:20;19.23;;;11.70;;
21591;SDS011;10958;50.892;3.992;2024-02-28T02:42:48;20.02;;;11.93;;
21591;SDS011;10958;50.892;3.992;2024-02-28T02:45:14;16.73;;;9.63;;
21591;SDS011;10958;50.892;3.992;2024-02-28T02:47:39;24.42;;;12.48;;
21591;SDS011;10958;50.892;3.992;2024-02-28T02:50:05;20.42;;;12.90;;
21591;SDS011;10958;50.892;3.992;2024-02-28T02:52:33;23.08;;;13.57;;
21591;SDS011;10958;50.892;3.992;2024-02-28T02:54:59;22.52;;;12.70;;
21591;SDS011;10958;50.892;3.992;2024-02-28T02:57:24;22.98;;;13.73;;
21591;SDS011;10958;50.892;3.992;2024-02-28T02:59:50;22.13;;;12.95;;
21591;SDS011;10958;50.892;3.992;2024-02-28T03:02:16;21.77;;;12.68;;
21591;SDS011;10958;50.892;3.992;2024-02-28T03:04:41;21.45;;;13.38;;
21591;SDS011;10958;50.892;3.992;2024-02-28T03:07:12;22.98;;;13.77;;
21591;SDS011;10958;50.892;3.992;2024-02-28T03:09:38;21.50;;;13.63;;
21591;SDS011;10958;50.892;3.992;2024-02-28T03:12:03;25.13;;;12.93;;
21591;SDS011;10958;50.892;3.992;2024-02-28T03:14:31;22.38;;;12.73;;
21591;SDS011;10958;50.892;3.992;2024-02-28T03:16:57;20.85;;;13.30;;
21591;SDS011;10958;50.892;3.992;2024-02-28T03:19:22;18.45;;;11.70;;
21591;SDS011;10958;50.892;3.992;2024-02-28T03:21:48;20.98;;;12.68;;
21591;SDS011;10958;50.892;3.992;2024-02-28T03:24:14;18.50;;;12.82;;
21591;SDS011;10958;50.892;3.992;2024-02-28T03:26:40;18.10;;;11.95;;
21591;SDS011;10958;50.892;3.992;2024-02-28T03:29:05;22.02;;;12.25;;
21591;SDS011;10958;50.892;3.992;2024-02-28T03:31:31;18.52;;;11.35;;
21591;SDS011;10958;50.892;3.992;2024-02-28T03:33:57;20.88;;;12.48;;
21591;SDS011;10958;50.892;3.992;2024-02-28T03:36:23;23.50;;;12.73;;
21591;SDS011;10958;50.892;3.992;2024-02-28T03:38:48;20.27;;;12.55;;
21591;SDS011;10958;50.892;3.992;2024-02-28T03:41:14;17.10;;;11.90;;
21591;SDS011;10958;50.892;3.992;2024-02-28T03:43:42;22.50;;;12.98;;
21591;SDS011;10958;50.892;3.992;2024-02-28T03:46:07;23.30;;;14.18;;
21591;SDS011;10958;50.892;3.992;2024-02-28T03:48:34;24.70;;;14.02;;
21591;SDS011;10958;50.892;3.992;2024-02-28T03:51:00;25.55;;;15.32;;
21591;SDS011;10958;50.892;3.992;2024-02-28T03:53:28;28.25;;;14.63;;
21591;SDS011;10958;50.892;3.992;2024-02-28T03:55:59;25.00;;;14.70;;
21591;SDS011;10958;50.892;3.992;2024-02-28T03:58:24;27.07;;;15.10;;
21591;SDS011;10958;50.892;3.992;2024-02-28T04:00:53;21.08;;;13.88;;
21591;SDS011;10958;50.892;3.992;2024-02-28T04:03:18;27.48;;;15.00;;
21591;SDS011;10958;50.892;3.992;2024-02-28T04:05:44;22.60;;;14.10;;
21591;SDS011;10958;50.892;3.992;2024-02-28T04:08:12;21.95;;;13.93;;
21591;SDS011;10958;50.892;3.992;2024-02-28T04:10:38;24.60;;;14.27;;
21591;SDS011;10958;50.892;3.992;2024-02-28T04:13:04;23.02;;;14.20;;
21591;SDS011;10958;50.892;3.992;2024-02-28T04:15:30;25.30;;;14.68;;
21591;SDS011;10958;50.892;3.992;2024-02-28T04:17:56;27.65;;;15.25;;
21591;SDS011;10958;50.892;3.992;2024-02-28T04:20:21;27.02;;;14.50;;
21591;SDS011;10958;50.892;3.992;2024-02-28T04:22:47;24.45;;;14.88;;
21591;SDS011;10958;50.892;3.992;2024-02-28T04:25:15;23.98;;;14.57;;
21591;SDS011;10958;50.892;3.992;2024-02-28T04:27:43;25.47;;;14.87;;
21591;SDS011;10958;50.892;3.992;2024-02-28T04:30:09;30.27;;;15.38;;
21591;SDS011;10958;50.892;3.992;2024-02-28T04:32:37;24.50;;;15.43;;
21591;SDS011;10958;50.892;3.992;2024-02-28T04:35:03;33.17;;;16.45;;
21591;SDS011;10958;50.892;3.992;2024-02-28T04:37:29;23.92;;;15.60;;
21591;SDS011;10958;50.892;3.992;2024-02-28T04:39:57;30.52;;;16.30;;
21591;SDS011;10958;50.892;3.992;2024-02-28T04:42:22;24.25;;;15.15;;
21591;SDS011;10958;50.892;3.992;2024-02-28T04:44:48;28.08;;;15.55;;
21591;SDS011;10958;50.892;3.992;2024-02-28T04:47:14;27.02;;;16.52;;
21591;SDS011;10958;50.892;3.992;2024-02-28T04:49:39;32.97;;;16.92;;
21591;SDS011;10958;50.892;3.992;2024-02-28T04:52:07;27.52;;;16.20;;
21591;SDS011;10958;50.892;3.992;2024-02-28T04:54:33;33.70;;;17.77;;
21591;SDS011;10958;50.892;3.992;2024-02-28T04:56:59;30.13;;;17.55;;
21591;SDS011;10958;50.892;3.992;2024-02-28T04:59:25;27.33;;;16.80;;
21591;SDS011;10958;50.892;3.992;2024-02-28T05:01:50;33.60;;;17.20;;
21591;SDS011;10958;50.892;3.992;2024-02-28T05:04:17;28.05;;;17.90;;
21591;SDS011;10958;50.892;3.992;2024-02-28T05:06:43;27.83;;;16.30;;
21591;SDS011;10958;50.892;3.992;2024-02-28T05:09:11;31.27;;;17.60;;
21591;SDS011;10958;50.892;3.992;2024-02-28T05:11:36;31.02;;;16.98;;
21591;SDS011;10958;50.892;3.992;2024-02-28T05:14:02;31.42;;;18.83;;
21591;SDS011;10958;50.892;3.992;2024-02-28T05:16:30;29.70;;;17.33;;
21591;SDS011;10958;50.892;3.992;2024-02-28T11:03:37;15.63;;;8.45;;
21591;SDS011;10958;50.892;3.992;2024-02-28T11:06:03;18.67;;;8.27;;
21591;SDS011;10958;50.892;3.992;2024-02-28T11:08:29;15.10;;;8.93;;
21591;SDS011;10958;50.892;3.992;2024-02-28T11:10:57;17.90;;;8.50;;
21591;SDS011;10958;50.892;3.992;2024-02-28T11:13:24;16.30;;;8.75;;
21591;SDS011;10958;50.892;3.992;2024-02-28T11:15:51;16.55;;;9.25;;
21591;SDS011;10958;50.892;3.992;2024-02-28T11:18:17;11.88;;;7.70;;
21591;SDS011;10958;50.892;3.992;2024-02-28T11:20:44;17.35;;;9.45;;
21591;SDS011;10958;50.892;3.992;2024-02-28T11:23:12;13.18;;;8.35;;
21591;SDS011;10958;50.892;3.992;2024-02-28T11:25:39;12.98;;;7.95;;
21591;SDS011;10958;50.892;3.992;2024-02-28T11:28:05;14.48;;;8.70;;
21591;SDS011;10958;50.892;3.992;2024-02-28T11:30:32;15.90;;;7.70;;
21591;SDS011;10958;50.892;3.992;2024-02-28T11:33:00;14.18;;;7.75;;
21591;SDS011;10958;50.892;3.992;2024-02-28T11:35:26;12.55;;;7.55;;
21591;SDS011;10958;50.892;3.992;2024-02-28T11:37:57;16.38;;;7.43;;
21591;SDS011;10958;50.892;3.992;2024-02-28T11:40:23;12.25;;;7.57;;
21591;SDS011;10958;50.892;3.992;2024-02-28T11:42:50;11.52;;;7.60;;
21591;SDS011;10958;50.892;3.992;2024-02-28T11:45:19;21.70;;;11.38;;
21591;SDS011;10958;50.892;3.992;2024-02-28T11:47:45;17.58;;;9.02;;
21591;SDS011;10958;50.892;3.992;2024-02-28T11:50:12;14.85;;;8.80;;
21591;SDS011;10958;50.892;3.992;2024-02-28T11:52:39;16.15;;;7.85;;
21591;SDS011;10958;50.892;3.992;2024-02-28T11:55:05;14.77;;;8.07;;
21591;SDS011;10958;50.892;3.992;2024-02-28T11:57:31;14.82;;;7.93;;
21591;SDS011;10958;50.892;3.992;2024-02-28T12:00:02;18.33;;;10.63;;
21591;SDS011;10958;50.892;3.992;2024-02-28T12:02:29;15.10;;;9.65;;
21591;SDS011;10958;50.892;3.992;2024-02-28T12:04:59;14.23;;;8.45;;
21591;SDS011;10958;50.892;3.992;2024-02-28T12:07:26;14.43;;;8.13;;
21591;SDS011;10958;50.892;3.992;2024-02-28T12:09:53;15.70;;;7.75;;
21591;SDS011;10958;50.892;3.992;2024-02-28T12:12:22;12.10;;;7.78;;
21591;SDS011;10958;50.892;3.992;2024-02-28T12:14:47;14.15;;;7.60;;
21591;SDS011;10958;50.892;3.992;2024-02-28T12:17:16;10.88;;;7.28;;
21591;SDS011;10958;50.892;3.992;2024-02-28T12:19:42;13.70;;;7.57;;
21591;SDS011;10958;50.892;3.992;2024-02-28T12:22:08;13.20;;;6.60;;
21591;SDS011;10958;50.892;3.992;2024-02-28T12:24:35;14.73;;;7.45;;
21591;SDS011;10958;50.892;3.992;2024-02-28T12:27:01;10.25;;;6.57;;
21591;SDS011;10958;50.892;3.992;2024-02-28T12:29:27;18.35;;;6.75;;
21591;SDS011;10958;50.892;3.992;2024-02-28T12:31:53;13.50;;;5.78;;
21591;SDS011;10958;50.892;3.992;2024-02-28T12:34:19;13.73;;;6.30;;
21591;SDS011;10958;50.892;3.992;2024-02-28T12:36:44;11.27;;;5.85;;
21591;SDS011;10958;50.892;3.992;2024-02-28T12:39:10;9.65;;;5.20;;
21591;SDS011;10958;50.892;3.992;2024-02-28T12:41:39;8.35;;;5.80;;
21591;SDS011;10958;50.892;3.992;2024-02-28T12:44:06;9.32;;;5.53;;
21591;SDS011;10958;50.892;3.992;2024-02-28T12:46:36;10.82;;;7.70;;
21591;SDS011;10958;50.892;3.992;2024-02-28T12:49:02;9.32;;;5.68;;
21591;SDS011;10958;50.892;3.992;2024-02-28T12:54:05;9.80;;;5.00;;
21591;SDS011;10958;50.892;3.992;2024-02-28T12:56:31;7.90;;;5.60;;
21591;SDS011;10958;50.892;3.992;2024-02-28T12:58:57;8.02;;;5.38;;
21591;SDS011;10958;50.892;3.992;2024-02-28T13:01:26;10.68;;;6.93;;
21591;SDS011;10958;50.892;3.992;2024-02-28T13:06:18;9.00;;;5.35;;
21591;SDS011;10958;50.892;3.992;2024-02-28T13:08:43;11.75;;;6.18;;
21591;SDS011;10958;50.892;3.992;2024-02-28T13:11:10;10.75;;;5.93;;
21591;SDS011;10958;50.892;3.992;2024-02-28T13:13:38;8.52;;;5.28;;
21591;SDS011;10958;50.892;3.992;2024-02-28T13:16:05;9.73;;;6.05;;
21591;SDS011;10958;50.892;3.992;2024-02-28T13:18:31;9.48;;;5.53;;
21591;SDS011;10958;50.892;3.992;2024-02-28T13:20:56;6.93;;;4.43;;
21591;SDS011;10958;50.892;3.992;2024-02-28T13:23:22;7.15;;;4.78;;
21591;SDS011;10958;50.892;3.992;2024-02-28T13:25:48;11.60;;;6.28;;
21591;SDS011;10958;50.892;3.992;2024-02-28T13:28:14;10.13;;;5.35;;
21591;SDS011;10958;50.892;3.992;2024-02-28T13:30:40;10.95;;;5.32;;
21591;SDS011;10958;50.892;3.992;2024-02-28T13:33:06;10.98;;;5.25;;
21591;SDS011;10958;50.892;3.992;2024-02-28T13:35:32;13.38;;;5.78;;
21591;SDS011;10958;50.892;3.992;2024-02-28T13:37:58;6.18;;;4.50;;
21591;SDS011;10958;50.892;3.992;2024-02-28T13:40:27;8.32;;;4.50;;
21591;SDS011;10958;50.892;3.992;2024-02-28T13:42:52;8.95;;;4.65;;
21591;SDS011;10958;50.892;3.992;2024-02-28T13:45:18;8.75;;;4.38;;
21591;SDS011;10958;50.892;3.992;2024-02-28T13:47:45;6.50;;;3.53;;
21591;SDS011;10958;50.892;3.992;2024-02-28T13:50:11;9.05;;;4.25;;
21591;SDS011;10958;50.892;3.992;2024-02-28T13:52:36;8.43;;;3.83;;
21591;SDS011;10958;50.892;3.992;2024-02-28T13:55:02;3.88;;;3.28;;
21591;SDS011;10958;50.892;3.992;2024-02-28T13:57:28;6.97;;;3.75;;
21591;SDS011;10958;50.892;3.992;2024-02-28T13:59:54;6.95;;;4.50;;
21591;SDS011;10958;50.892;3.992;2024-02-28T14:02:25;7.63;;;3.78;;
21591;SDS011;10958;50.892;3.992;2024-02-28T14:04:52;6.07;;;3.63;;
21591;SDS011;10958;50.892;3.992;2024-02-28T14:07:19;7.15;;;3.80;;
21591;SDS011;10958;50.892;3.992;2024-02-28T14:09:45;6.50;;;4.03;;
21591;SDS011;10958;50.892;3.992;2024-02-28T14:12:13;5.10;;;3.65;;
21591;SDS011;10958;50.892;3.992;2024-02-28T14:14:39;6.13;;;4.10;;
21591;SDS011;10958;50.892;3.992;2024-02-28T14:17:05;5.15;;;4.05;;
21591;SDS011;10958;50.892;3.992;2024-02-28T14:19:33;4.60;;;3.20;;
21591;SDS011;10958;50.892;3.992;2024-02-28T14:22:00;5.13;;;3.28;;
21591;SDS011;10958;50.892;3.992;2024-02-28T14:24:26;5.15;;;3.05;;
21591;SDS011;10958;50.892;3.992;2024-02-28T14:26:52;8.63;;;2.72;;
21591;SDS011;10958;50.892;3.992;2024-02-28T14:29:18;4.22;;;2.92;;
21591;SDS011;10958;50.892;3.992;2024-02-28T14:31:43;6.25;;;2.90;;
21591;SDS011;10958;50.892;3.992;2024-02-28T14:34:09;6.68;;;3.03;;
21591;SDS011;10958;50.892;3.992;2024-02-28T14:36:35;7.32;;;3.75;;
21591;SDS011;10958;50.892;3.992;2024-02-28T14:39:01;6.53;;;2.70;;
21591;SDS011;10958;50.892;3.992;2024-02-28T14:41:26;4.18;;;2.83;;
21591;SDS011;10958;50.892;3.992;2024-02-28T14:43:52;5.65;;;2.83;;
21591;SDS011;10958;50.892;3.992;2024-02-28T14:46:18;6.03;;;2.95;;
21591;SDS011;10958;50.892;3.992;2024-02-28T14:48:46;4.13;;;2.70;;
21591;SDS011;10958;50.892;3.992;2024-02-28T14:51:16;6.80;;;2.92;;
21591;SDS011;10958;50.892;3.992;2024-02-28T14:53:44;8.95;;;2.75;;
21591;SDS011;10958;50.892;3.992;2024-02-28T14:56:11;4.43;;;2.50;;
21591;SDS011;10958;50.892;3.992;2024-02-28T14:58:36;7.38;;;3.33;;
21591;SDS011;10958;50.892;3.992;2024-02-28T15:01:04;6.10;;;3.08;;
21591;SDS011;10958;50.892;3.992;2024-02-28T15:03:32;6.88;;;3.53;;
21591;SDS011;10958;50.892;3.992;2024-02-28T15:06:00;8.52;;;3.42;;
21591;SDS011;10958;50.892;3.992;2024-02-28T15:08:26;7.03;;;4.33;;
21591;SDS011;10958;50.892;3.992;2024-02-28T15:10:52;7.53;;;3.47;;
21591;SDS011;10958;50.892;3.992;2024-02-28T15:13:18;5.53;;;3.35;;
21591;SDS011;10958;50.892;3.992;2024-02-28T15:15:43;4.32;;;3.17;;
21591;SDS011;10958;50.892;3.992;2024-02-28T15:18:09;5.97;;;3.05;;
21591;SDS011;10958;50.892;3.992;2024-02-28T15:20:35;4.15;;;2.88;;
21591;SDS011;10958;50.892;3.992;2024-02-28T15:23:03;3.97;;;2.95;;
21591;SDS011;10958;50.892;3.992;2024-02-28T15:25:29;4.28;;;2.78;;
21591;SDS011;10958;50.892;3.992;2024-02-28T15:27:55;6.20;;;2.53;;
21591;SDS011;10958;50.892;3.992;2024-02-28T15:30:21;5.85;;;2.78;;
21591;SDS011;10958;50.892;3.992;2024-02-28T15:32:49;4.57;;;2.78;;
21591;SDS011;10958;50.892;3.992;2024-02-28T15:35:15;6.27;;;3.13;;
21591;SDS011;10958;50.892;3.992;2024-02-28T15:37:40;8.27;;;2.97;;
21591;SDS011;10958;50.892;3.992;2024-02-28T15:40:06;5.95;;;2.63;;
21591;SDS011;10958;50.892;3.992;2024-02-28T15:42:33;4.32;;;2.42;;
21591;SDS011;10958;50.892;3.992;2024-02-28T15:44:59;3.60;;;2.58;;
21591;SDS011;10958;50.892;3.992;2024-02-28T15:47:25;10.35;;;5.18;;
21591;SDS011;10958;50.892;3.992;2024-02-28T15:49:50;4.80;;;3.15;;
21591;SDS011;10958;50.892;3.992;2024-02-28T15:52:17;5.97;;;2.97;;
21591;SDS011;10958;50.892;3.992;2024-02-28T15:54:43;4.03;;;2.92;;
21591;SDS011;10958;50.892;3.992;2024-02-28T15:57:08;6.82;;;3.25;;
21591;SDS011;10958;50.892;3.992;2024-02-28T15:59:37;5.18;;;2.75;;
21591;SDS011;10958;50.892;3.992;2024-02-28T16:02:03;7.20;;;2.92;;
21591;SDS011;10958;50.892;3.992;2024-02-28T16:04:31;4.25;;;2.58;;
21591;SDS011;10958;50.892;3.992;2024-02-28T16:07:00;7.57;;;3.10;;
21591;SDS011;10958;50.892;3.992;2024-02-28T16:09:26;7.97;;;3.60;;
21591;SDS011;10958;50.892;3.992;2024-02-28T16:11:52;9.38;;;3.50;;
21591;SDS011;10958;50.892;3.992;2024-02-28T16:14:17;8.15;;;3.90;;
21591;SDS011;10958;50.892;3.992;2024-02-28T16:16:46;8.95;;;2.65;;
21591;SDS011;10958;50.892;3.992;2024-02-28T16:19:11;10.05;;;3.40;;
21591;SDS011;10958;50.892;3.992;2024-02-28T16:21:37;6.15;;;2.28;;
21591;SDS011;10958;50.892;3.992;2024-02-28T16:24:03;4.80;;;2.45;;
21591;SDS011;10958;50.892;3.992;2024-02-28T16:26:28;6.18;;;3.42;;
21591;SDS011;10958;50.892;3.992;2024-02-28T16:28:54;7.55;;;3.67;;
21591;SDS011;10958;50.892;3.992;2024-02-28T16:31:22;5.70;;;2.22;;
21591;SDS011;10958;50.892;3.992;2024-02-28T16:33:48;7.88;;;3.08;;
21591;SDS011;10958;50.892;3.992;2024-02-28T16:36:13;11.25;;;4.80;;
21591;SDS011;10958;50.892;3.992;2024-02-28T16:38:39;11.70;;;4.00;;
21591;SDS011;10958;50.892;3.992;2024-02-28T16:41:08;10.38;;;4.38;;
21591;SDS011;10958;50.892;3.992;2024-02-28T16:43:33;9.90;;;7.27;;
21591;SDS011;10958;50.892;3.992;2024-02-28T16:45:59;6.20;;;3.83;;
21591;SDS011;10958;50.892;3.992;2024-02-28T16:48:25;6.75;;;2.92;;
21591;SDS011;10958;50.892;3.992;2024-02-28T16:50:51;9.05;;;3.00;;
21591;SDS011;10958;50.892;3.992;2024-02-28T16:53:16;6.40;;;2.90;;
21591;SDS011;10958;50.892;3.992;2024-02-28T16:55:42;8.35;;;2.72;;
21591;SDS011;10958;50.892;3.992;2024-02-28T16:58:08;9.23;;;3.65;;
21591;SDS011;10958;50.892;3.992;2024-02-28T17:00:34;6.47;;;3.05;;
21591;SDS011;10958;50.892;3.992;2024-02-28T17:03:00;5.93;;;3.33;;
21591;SDS011;10958;50.892;3.992;2024-02-28T17:05:34;6.80;;;3.20;;
21591;SDS011;10958;50.892;3.992;2024-02-28T17:08:03;12.93;;;7.70;;
21591;SDS011;10958;50.892;3.992;2024-02-28T17:10:34;4.00;;;2.95;;
21591;SDS011;10958;50.892;3.992;2024-02-28T17:13:02;10.80;;;4.65;;
21591;SDS011;10958;50.892;3.992;2024-02-28T17:15:29;11.60;;;4.75;;
21591;SDS011;10958;50.892;3.992;2024-02-28T17:17:57;19.35;;;6.25;;
21591;SDS011;10958;50.892;3.992;2024-02-28T17:20:23;7.28;;;4.50;;
21591;SDS011;10958;50.892;3.992;2024-02-28T17:22:51;7.30;;;3.90;;
21591;SDS011;10958;50.892;3.992;2024-02-28T17:25:17;13.15;;;5.20;;
21591;SDS011;10958;50.892;3.992;2024-02-28T17:27:45;9.00;;;4.03;;
21591;SDS011;10958;50.892;3.992;2024-02-28T17:30:17;8.18;;;4.20;;
21591;SDS011;10958;50.892;3.992;2024-02-28T17:32:43;14.23;;;7.50;;
21591;SDS011;10958;50.892;3.992;2024-02-28T17:35:11;9.80;;;3.75;;
21591;SDS011;10958;50.892;3.992;2024-02-28T17:37:38;8.40;;;3.83;;
21591;SDS011;10958;50.892;3.992;2024-02-28T17:40:12;22.17;;;13.20;;
21591;SDS011;10958;50.892;3.992;2024-02-28T17:42:39;10.07;;;4.72;;
21591;SDS011;10958;50.892;3.992;2024-02-28T17:45:08;8.60;;;4.07;;
21591;SDS011;10958;50.892;3.992;2024-02-28T17:47:34;6.82;;;3.95;;
21591;SDS011;10958;50.892;3.992;2024-02-28T17:50:02;15.18;;;7.03;;
21591;SDS011;10958;50.892;3.992;2024-02-28T17:52:41;8.43;;;4.72;;
21591;SDS011;10958;50.892;3.992;2024-02-28T17:55:10;5.95;;;4.47;;
21591;SDS011;10958;50.892;3.992;2024-02-28T17:57:36;8.40;;;4.70;;
21591;SDS011;10958;50.892;3.992;2024-02-28T18:00:05;5.72;;;3.25;;
21591;SDS011;10958;50.892;3.992;2024-02-28T18:02:40;7.93;;;3.55;;
21591;SDS011;10958;50.892;3.992;2024-02-28T18:05:09;7.43;;;4.82;;
21591;SDS011;10958;50.892;3.992;2024-02-28T18:07:35;8.68;;;5.57;;
21591;SDS011;10958;50.892;3.992;2024-02-28T18:10:01;11.80;;;5.40;;
21591;SDS011;10958;50.892;3.992;2024-02-28T18:12:32;9.02;;;4.53;;
21591;SDS011;10958;50.892;3.992;2024-02-28T18:15:06;10.02;;;5.10;;
21591;SDS011;10958;50.892;3.992;2024-02-28T18:17:35;10.13;;;5.30;;
21591;SDS011;10958;50.892;3.992;2024-02-28T18:20:06;9.25;;;4.22;;
21591;SDS011;10958;50.892;3.992;2024-02-28T18:22:33;9.43;;;5.20;;
21591;SDS011;10958;50.892;3.992;2024-02-28T18:24:59;8.60;;;4.97;;
21591;SDS011;10958;50.892;3.992;2024-02-28T18:27:29;12.75;;;4.93;;
21591;SDS011;10958;50.892;3.992;2024-02-28T18:30:01;24.77;;;15.32;;
21591;SDS011;10958;50.892;3.992;2024-02-28T18:32:30;10.02;;;5.35;;
21591;SDS011;10958;50.892;3.992;2024-02-28T18:34:56;11.13;;;5.40;;
21591;SDS011;10958;50.892;3.992;2024-02-28T18:37:25;11.68;;;5.70;;
21591;SDS011;10958;50.892;3.992;2024-02-28T18:39:58;8.73;;;4.95;;
21591;SDS011;10958;50.892;3.992;2024-02-28T18:42:24;9.27;;;5.05;;
21591;SDS011;10958;50.892;3.992;2024-02-28T18:44:57;7.75;;;5.45;;
21591;SDS011;10958;50.892;3.992;2024-02-28T18:47:29;11.68;;;6.07;;
21591;SDS011;10958;50.892;3.992;2024-02-28T18:50:08;7.68;;;5.38;;
21591;SDS011;10958;50.892;3.992;2024-02-28T18:52:36;13.25;;;5.63;;
21591;SDS011;10958;50.892;3.992;2024-02-28T18:55:08;16.67;;;6.90;;
21591;SDS011;10958;50.892;3.992;2024-02-28T18:57:34;12.77;;;5.80;;
21591;SDS011;10958;50.892;3.992;2024-02-28T19:00:00;11.38;;;6.00;;
21591;SDS011;10958;50.892;3.992;2024-02-28T19:02:29;11.48;;;6.18;;
21591;SDS011;10958;50.892;3.992;2024-02-28T19:04:57;11.10;;;6.40;;
21591;SDS011;10958;50.892;3.992;2024-02-28T19:07:24;12.32;;;6.70;;
21591;SDS011;10958;50.892;3.992;2024-02-28T19:09:51;12.20;;;6.30;;
21591;SDS011;10958;50.892;3.992;2024-02-28T19:12:30;38.83;;;22.83;;
21591;SDS011;10958;50.892;3.992;2024-02-28T19:15:21;13.32;;;6.10;;
21591;SDS011;10958;50.892;3.992;2024-02-28T19:17:52;11.63;;;6.95;;
21591;SDS011;10958;50.892;3.992;2024-02-28T19:20:18;10.63;;;6.53;;
21591;SDS011;10958;50.892;3.992;2024-02-28T19:22:48;11.85;;;6.32;;
21591;SDS011;10958;50.892;3.992;2024-02-28T19:25:13;11.82;;;7.05;;
21591;SDS011;10958;50.892;3.992;2024-02-28T19:27:50;10.43;;;7.13;;
21591;SDS011;10958;50.892;3.992;2024-02-28T19:30:16;13.02;;;7.47;;
21591;SDS011;10958;50.892;3.992;2024-02-28T19:32:47;10.02;;;7.22;;
21591;SDS011;10958;50.892;3.992;2024-02-28T19:35:16;12.40;;;7.55;;
21591;SDS011;10958;50.892;3.992;2024-02-28T19:37:45;12.35;;;7.53;;
21591;SDS011;10958;50.892;3.992;2024-02-28T19:40:11;10.73;;;7.35;;
21591;SDS011;10958;50.892;3.992;2024-02-28T19:42:37;17.42;;;8.55;;
21591;SDS011;10958;50.892;3.992;2024-02-28T19:45:04;12.88;;;8.40;;
21591;SDS011;10958;50.892;3.992;2024-02-28T19:49:59;16.70;;;8.55;;
21591;SDS011;10958;50.892;3.992;2024-02-28T19:52:28;14.10;;;8.65;;
21591;SDS011;10958;50.892;3.992;2024-02-28T19:54:54;17.40;;;8.30;;
21591;SDS011;10958;50.892;3.992;2024-02-28T19:57:24;16.13;;;9.27;;
21591;SDS011;10958;50.892;3.992;2024-02-28T19:59:51;16.27;;;9.70;;
21591;SDS011;10958;50.892;3.992;2024-02-28T20:02:17;13.63;;;9.48;;
21591;SDS011;10958;50.892;3.992;2024-02-28T20:04:46;19.10;;;10.32;;
21591;SDS011;10958;50.892;3.992;2024-02-28T20:07:20;14.27;;;9.52;;
21591;SDS011;10958;50.892;3.992;2024-02-28T20:09:46;15.33;;;9.53;;
21591;SDS011;10958;50.892;3.992;2024-02-28T20:12:12;13.35;;;9.90;;
21591;SDS011;10958;50.892;3.992;2024-02-28T20:14:38;14.80;;;9.23;;
21591;SDS011;10958;50.892;3.992;2024-02-28T20:17:13;16.45;;;9.27;;
21591;SDS011;10958;50.892;3.992;2024-02-28T20:19:41;18.90;;;10.82;;
21591;SDS011;10958;50.892;3.992;2024-02-28T20:22:08;16.10;;;10.65;;
21591;SDS011;10958;50.892;3.992;2024-02-28T20:24:34;21.35;;;11.65;;
21591;SDS011;10958;50.892;3.992;2024-02-28T20:27:00;15.43;;;10.88;;
21591;SDS011;10958;50.892;3.992;2024-02-28T20:29:26;17.20;;;10.38;;